Time;durP1;ratioP1;P1;durP2;ratioP2;P2;SDS_P1;SDS_P2;PMS_P1;PMS_P2;Temp;Humidity;BMP_temperature;BMP_pressure;BME280_temperature;BME280_humidity;BME280_pressure;Samples;Min_cycle;Max_cycle;Signal;HPM_P1;HPM_P2
2022/11/08 00:01:35;;;;;;;114.72;53.38;;;;;;;-0.07;79.53;101703.72;1784291;80;21150;-88
2022/11/08 00:04:12;;;;;;;110.55;52.43;;;;;;;-0.08;79.61;101695.57;1784015;80;20856;-87
2022/11/08 00:14:55;;;;;;;85.10;44.10;;;;;;;-0.18;79.56;101680.50;1784369;80;21158;-87
2022/11/08 00:17:23;;;;;;;89.65;43.30;;;;;;;-0.22;79.74;101681.37;1783642;80;20928;-87
2022/11/08 00:19:50;;;;;;;82.70;43.65;;;;;;;-0.23;80.05;101684.36;1783749;80;20892;-86
2022/11/08 00:22:16;;;;;;;82.17;41.70;;;;;;;-0.21;80.14;101690.38;1783952;80;20967;-85
2022/11/08 00:24:43;;;;;;;84.77;42.38;;;;;;;-0.19;79.98;101689.11;1783887;80;20908;-86
2022/11/08 00:27:18;;;;;;;94.30;42.65;;;;;;;-0.19;79.72;101688.25;1783848;80;21221;-86
2022/11/08 00:29:46;;;;;;;82.75;43.87;;;;;;;-0.21;79.46;101694.69;1783944;80;21267;-86
2022/11/08 00:32:16;;;;;;;74.62;39.78;;;;;;;-0.23;79.44;101695.11;1783847;80;21338;-87
2022/11/08 00:34:44;;;;;;;79.87;40.88;;;;;;;-0.24;79.48;101694.69;1784080;80;20940;-86
2022/11/08 00:37:12;;;;;;;78.15;41.10;;;;;;;-0.25;79.45;101695.53;1783444;80;20956;-86
2022/11/08 00:39:38;;;;;;;80.20;39.90;;;;;;;-0.27;79.42;101692.97;1775664;80;21126;-86
2022/11/08 00:42:05;;;;;;;95.45;43.85;;;;;;;-0.28;79.37;101692.52;1777127;80;20885;-86
2022/11/08 00:44:32;;;;;;;102.32;49.65;;;;;;;-0.28;79.49;101691.67;1776245;80;20932;-87
2022/11/08 00:46:59;;;;;;;92.05;43.68;;;;;;;-0.30;79.55;101686.94;1775578;80;20924;-86
2022/11/08 00:49:25;;;;;;;94.35;46.37;;;;;;;-0.29;79.72;101685.66;1775709;80;21394;-86
2022/11/08 00:51:52;;;;;;;90.12;44.63;;;;;;;-0.29;79.79;101690.81;1775590;80;21350;-86
2022/11/08 00:54:23;;;;;;;81.42;43.15;;;;;;;-0.28;79.89;101688.66;1775605;80;21489;-86
2022/11/08 00:56:50;;;;;;;85.42;43.38;;;;;;;-0.27;79.91;101689.11;1775667;80;20936;-87
2022/11/08 00:59:18;;;;;;;79.47;41.68;;;;;;;-0.28;79.69;101695.09;1775450;80;21564;-86
2022/11/08 01:01:45;;;;;;;77.62;43.15;;;;;;;-0.27;79.67;101691.69;1775592;80;20928;-86
2022/11/08 01:04:15;;;;;;;72.50;40.45;;;;;;;-0.28;79.49;101692.52;1775441;80;21735;-86
2022/11/08 01:06:42;;;;;;;76.85;41.53;;;;;;;-0.30;79.31;101690.80;1775433;80;20837;-86
2022/11/08 01:09:09;;;;;;;82.00;42.55;;;;;;;-0.31;79.28;101691.24;1775810;80;20975;-84
2022/11/08 01:11:37;;;;;;;74.50;38.55;;;;;;;-0.30;79.32;101684.36;1775679;80;21547;-86
2022/11/08 01:14:04;;;;;;;77.40;39.10;;;;;;;-0.31;79.21;101686.09;1775698;80;20924;-86
2022/11/08 01:16:32;;;;;;;76.42;38.65;;;;;;;-0.31;79.25;101690.35;1775549;80;21136;-84
2022/11/08 01:19:00;;;;;;;76.35;40.35;;;;;;;-0.32;79.33;101694.66;1775581;80;20975;-87
2022/11/08 01:21:26;;;;;;;79.72;42.75;;;;;;;-0.32;79.44;101689.50;1775696;80;20932;-86
2022/11/08 01:23:54;;;;;;;78.72;39.30;;;;;;;-0.30;79.41;101687.79;1775626;80;20913;-87
2022/11/08 01:26:26;;;;;;;78.47;39.27;;;;;;;-0.31;79.18;101689.95;1775649;80;20999;-87
2022/11/08 01:28:54;;;;;;;72.47;35.60;;;;;;;-0.33;79.18;101690.81;1777544;80;21125;-87
2022/11/08 01:31:30;;;;;;;80.10;39.90;;;;;;;-0.35;79.43;101697.23;1777899;80;20964;-86
2022/11/08 01:33:59;;;;;;;75.30;40.95;;;;;;;-0.35;79.70;101692.08;1778316;79;20948;-85
2022/11/08 01:36:28;;;;;;;73.90;39.75;;;;;;;-0.35;79.70;101696.38;1778704;79;21011;-84
2022/11/08 01:38:55;;;;;;;75.60;40.10;;;;;;;-0.34;79.46;101691.65;1776778;80;20928;-86
2022/11/08 01:41:23;;;;;;;65.83;38.67;;;;;;;-0.37;79.11;101701.52;1775525;80;21186;-87
2022/11/08 01:43:53;;;;;;;70.17;36.40;;;;;;;-0.39;78.92;101699.37;1776165;80;20940;-87
2022/11/08 01:46:34;;;;;;;68.83;36.48;;;;;;;-0.40;78.93;101696.78;1775076;80;21449;-87
2022/11/08 01:49:09;;;;;;;61.58;35.43;;;;;;;-0.41;78.96;101697.22;1775516;80;20940;-87
2022/11/08 01:52:06;;;;;;;62.62;33.50;;;;;;;-0.40;78.96;101699.36;1775893;80;20920;-86
2022/11/08 01:54:43;;;;;;;57.85;33.05;;;;;;;-0.40;78.93;101703.22;1775565;80;21370;-88
2022/11/08 01:57:14;;;;;;;61.73;31.57;;;;;;;-0.44;78.84;101699.80;1775313;80;20947;-87
2022/11/08 01:59:41;;;;;;;58.23;31.33;;;;;;;-0.45;79.08;101697.63;1775789;80;20916;-87
2022/11/08 02:02:10;;;;;;;59.48;31.37;;;;;;;-0.43;79.23;101701.50;1775494;80;20916;-87
2022/11/08 02:04:37;;;;;;;32.10;18.57;;;;;;;-0.40;79.20;101703.22;1775557;80;20885;-86
2022/11/08 02:07:05;;;;;;;27.60;17.92;;;;;;;-0.40;79.30;101704.51;1775462;80;21247;-86
2022/11/08 02:09:32;;;;;;;26.75;18.02;;;;;;;-0.36;81.03;101705.80;1775419;80;21019;-86
2022/11/08 02:12:00;;;;;;;26.00;16.65;;;;;;;-0.28;82.10;101708.42;1775820;80;20912;-86
2022/11/08 02:14:27;;;;;;;29.25;18.52;;;;;;;-0.21;83.00;101700.69;1775550;80;20932;-88
2022/11/08 02:16:53;;;;;;;32.65;21.20;;;;;;;-0.13;83.57;101702.45;1775605;80;20908;-88
2022/11/08 02:19:26;;;;;;;33.02;23.12;;;;;;;-0.07;84.05;101697.28;1775709;80;21691;-89
2022/11/08 02:21:55;;;;;;;40.38;25.00;;;;;;;-0.03;84.50;101695.98;1774374;80;20924;-89
2022/11/08 02:24:22;;;;;;;37.73;24.35;;;;;;;0.00;84.78;101692.58;1775493;80;20896;-88
2022/11/08 02:26:49;;;;;;;41.18;24.72;;;;;;;0.03;84.95;101695.59;1775513;80;20928;-89
2022/11/08 02:29:29;;;;;;;43.28;24.12;;;;;;;0.05;85.36;101693.88;1775477;80;20893;-88
2022/11/08 02:31:59;;;;;;;39.35;22.93;;;;;;;0.04;85.53;101695.56;1774191;80;21335;-88
2022/11/08 02:34:31;;;;;;;35.33;20.50;;;;;;;0.04;85.74;101698.14;1775594;80;20881;-88
2022/11/08 02:37:00;;;;;;;47.40;22.50;;;;;;;0.04;85.93;101702.02;1776105;80;20944;-86
2022/11/08 02:39:27;;;;;;;39.63;20.35;;;;;;;0.02;86.15;101711.46;1770565;80;20905;-86
2022/11/08 02:41:54;;;;;;;42.38;16.23;;;;;;;0.00;86.24;101709.34;1768560;81;20881;-86
2022/11/08 02:44:21;;;;;;;55.17;16.75;;;;;;;-0.03;86.34;101717.05;1768460;80;21243;-86
2022/11/08 02:46:48;;;;;;;59.83;15.88;;;;;;;-0.07;86.38;101717.91;1768559;81;21433;-85
2022/11/08 02:49:15;;;;;;;63.55;16.57;;;;;;;-0.11;86.57;101713.59;1768606;81;20953;-87
2022/11/08 02:51:43;;;;;;;35.65;14.80;;;;;;;-0.11;86.85;101709.32;1768598;80;20937;-86
2022/11/08 02:54:09;;;;;;;66.82;16.52;;;;;;;-0.08;87.03;101716.20;1768567;81;20936;-86
2022/11/08 02:56:37;;;;;;;74.70;18.65;;;;;;;-0.06;87.13;101716.62;1768593;80;21142;-86
2022/11/08 02:59:04;;;;;;;80.10;17.73;;;;;;;-0.06;87.29;101714.48;1768763;80;20924;-87
2022/11/08 03:01:32;;;;;;;95.95;20.43;;;;;;;-0.05;87.50;101715.75;1769747;80;20941;-85
2022/11/08 03:03:59;;;;;;;70.37;18.25;;;;;;;-0.03;87.60;101718.34;1771479;81;21015;-86
2022/11/08 03:06:26;;;;;;;67.78;20.23;;;;;;;-0.01;87.80;101724.36;1771103;80;20893;-85
2022/11/08 03:08:56;;;;;;;90.50;22.20;;;;;;;-0.01;87.92;101725.22;1770048;81;21133;-86
2022/11/08 03:11:22;;;;;;;96.00;20.08;;;;;;;0.02;88.06;101724.36;1768592;80;20888;-88
2022/11/08 03:13:51;;;;;;;89.75;20.30;;;;;;;0.04;88.21;101718.78;1768451;81;21458;-86
2022/11/08 03:16:18;;;;;;;87.88;20.68;;;;;;;0.08;88.36;101718.36;1768392;80;20971;-86
2022/11/08 03:18:45;;;;;;;53.25;19.05;;;;;;;0.12;88.45;101711.06;1768444;80;20845;-87
2022/11/08 03:21:11;;;;;;;45.65;18.82;;;;;;;0.16;88.60;101711.50;1768452;80;21080;-89
2022/11/08 03:23:39;;;;;;;71.45;18.02;;;;;;;0.22;88.83;101708.05;1768308;80;20924;-86
2022/11/08 03:26:06;;;;;;;73.40;19.15;;;;;;;0.29;88.90;101703.31;1768582;80;20925;-88
2022/11/08 03:28:32;;;;;;;38.58;16.55;;;;;;;0.34;88.82;101706.77;1768445;80;20901;-86
2022/11/08 03:30:59;;;;;;;64.22;17.27;;;;;;;0.35;88.68;101709.77;1768486;81;20889;-87
2022/11/08 03:33:26;;;;;;;74.32;17.05;;;;;;;0.37;88.74;101705.03;1769059;81;21211;-85
2022/11/08 03:35:52;;;;;;;41.65;17.37;;;;;;;0.40;88.77;101702.47;1768486;80;20889;-88
2022/11/08 03:38:19;;;;;;;49.40;15.58;;;;;;;0.45;88.83;101708.06;1768985;80;20901;-88
2022/11/08 03:40:45;;;;;;;42.13;17.95;;;;;;;0.47;88.79;101705.91;1775383;80;20944;-86
2022/11/08 03:43:12;;;;;;;62.03;17.50;;;;;;;0.50;88.88;101715.36;1775491;80;20935;-87
2022/11/08 03:45:39;;;;;;;43.45;16.42;;;;;;;0.57;89.23;101709.33;1775751;80;21791;-87
2022/11/08 03:48:06;;;;;;;47.40;16.45;;;;;;;0.66;89.24;101705.44;1775337;80;20888;-87
2022/11/08 03:50:33;;;;;;;53.73;20.65;;;;;;;0.71;89.11;101702.44;1775431;80;20885;-88
2022/11/08 03:53:00;;;;;;;54.80;18.92;;;;;;;0.78;89.12;101704.58;1775358;80;20904;-90
2022/11/08 03:55:27;;;;;;;62.25;17.55;;;;;;;0.83;89.17;101702.40;1775484;80;21561;-87
2022/11/08 03:57:55;;;;;;;43.40;17.42;;;;;;;0.88;88.87;101706.70;1775354;80;21842;-87
2022/11/08 04:00:26;;;;;;;66.02;17.48;;;;;;;0.86;88.68;101706.69;1775641;80;20964;-87
2022/11/08 04:02:54;;;;;;;33.92;18.90;;;;;;;0.86;88.63;101704.11;1775512;80;20919;-88
2022/11/08 04:05:21;;;;;;;37.90;19.85;;;;;;;0.86;88.74;101709.71;1775366;80;20944;-87
2022/11/08 04:07:47;;;;;;;50.90;19.12;;;;;;;0.92;89.01;101714.87;1775420;80;21643;-87
2022/11/08 04:10:14;;;;;;;45.08;19.65;;;;;;;1.00;89.17;101714.40;1775458;80;21354;-87
2022/11/08 04:15:26;;;;;;;34.53;19.85;;;;;;;1.11;88.92;101715.26;1775441;80;20872;-87
2022/11/08 04:23:32;;;;;;;56.18;21.60;;;;;;;1.26;89.13;101705.72;1775347;80;21256;-87
2022/11/08 04:26:03;;;;;;;49.60;19.25;;;;;;;1.29;88.86;101706.58;1775212;80;20984;-86
2022/11/08 04:28:32;;;;;;;41.55;19.67;;;;;;;1.36;88.97;101708.70;1774421;80;20991;-86
2022/11/08 04:31:04;;;;;;;50.30;21.05;;;;;;;1.38;88.78;101709.52;1775302;80;21014;-89
2022/11/08 04:33:31;;;;;;;31.17;18.80;;;;;;;1.42;88.87;101714.70;1775811;80;20908;-88
2022/11/08 04:36:03;;;;;;;36.33;21.45;;;;;;;1.48;88.79;101709.06;1775459;80;21190;-87
2022/11/08 04:38:31;;;;;;;42.70;18.48;;;;;;;1.51;88.59;101718.09;1774744;80;20905;-87
2022/11/08 04:41:04;;;;;;;35.17;19.02;;;;;;;1.51;88.42;101712.48;1775635;80;21034;-87
2022/11/08 04:43:30;;;;;;;33.45;18.82;;;;;;;1.48;88.27;101706.05;1776798;80;20944;-87
2022/11/08 04:46:08;;;;;;;39.55;20.52;;;;;;;1.46;88.25;101711.66;1777580;80;20837;-89
2022/11/08 04:48:34;;;;;;;42.40;21.00;;;;;;;1.47;88.43;101710.80;1777888;80;21220;-84
2022/11/08 04:51:05;;;;;;;41.42;20.62;;;;;;;1.53;88.72;101709.45;1778029;80;20912;-84
2022/11/08 04:53:31;;;;;;;41.28;21.10;;;;;;;1.60;88.91;101709.88;1776960;80;20944;-87
2022/11/08 04:56:04;;;;;;;38.63;20.43;;;;;;;1.69;88.92;101711.55;1775549;80;21405;-87
2022/11/08 04:58:38;;;;;;;35.88;20.12;;;;;;;1.77;88.76;101708.91;1774935;80;20924;-88
2022/11/08 05:01:03;;;;;;;49.80;19.45;;;;;;;1.80;88.52;101703.70;1774116;80;21831;-87
2022/11/08 05:03:31;;;;;;;40.28;18.80;;;;;;;1.82;88.34;101711.91;1775376;80;20889;-88
2022/11/08 05:06:12;;;;;;;40.88;17.52;;;;;;;1.83;88.22;101714.91;1776352;80;20893;-86
2022/11/08 05:08:40;;;;;;;30.85;16.90;;;;;;;1.85;88.16;101705.85;1775743;80;20940;-86
2022/11/08 05:11:13;;;;;;;36.42;17.50;;;;;;;1.86;88.06;101705.81;1775559;80;20841;-86
2022/11/08 05:13:41;;;;;;;36.50;16.70;;;;;;;1.89;87.96;101708.84;1775515;80;21481;-87
2022/11/08 05:16:20;;;;;;;29.15;16.12;;;;;;;1.90;87.93;101709.26;1775403;80;21003;-85
2022/11/08 05:18:48;;;;;;;28.42;14.73;;;;;;;1.91;87.82;101705.78;1755590;80;20928;-87
2022/11/08 05:24:04;;;;;;;27.77;16.70;;;;;;;1.89;87.57;101714.43;1775578;80;20912;-88
2022/11/08 05:26:33;;;;;;;39.70;19.77;;;;;;;1.90;87.76;101707.97;1775488;80;21126;-87
2022/11/08 05:29:00;;;;;;;38.08;19.90;;;;;;;1.97;87.90;101715.25;1776025;80;20905;-87
2022/11/08 05:31:26;;;;;;;36.05;18.62;;;;;;;2.00;87.69;101716.51;1776068;80;20853;-86
2022/11/08 05:33:53;;;;;;;33.08;15.95;;;;;;;2.03;87.72;101721.23;1775782;80;21407;-87
2022/11/08 05:36:20;;;;;;;29.27;17.07;;;;;;;2.05;87.59;101725.97;1775732;80;20964;-89
2022/11/08 05:38:46;;;;;;;31.57;17.70;;;;;;;2.07;87.55;101725.53;1775172;80;21260;-87
2022/11/08 05:41:17;;;;;;;35.25;16.20;;;;;;;2.10;87.50;101725.09;1775354;80;20885;-89
2022/11/08 05:43:49;;;;;;;35.00;17.20;;;;;;;2.14;87.40;101726.34;1775311;80;21418;-88
2022/11/08 05:46:16;;;;;;;34.58;16.85;;;;;;;2.18;87.36;101724.58;1775351;80;21334;-89
2022/11/08 05:48:43;;;;;;;35.78;18.07;;;;;;;2.22;87.26;101727.16;1775393;80;21375;-88
2022/11/08 05:51:10;;;;;;;35.13;18.30;;;;;;;2.27;87.22;101721.94;1775327;80;21414;-88
2022/11/08 05:53:39;;;;;;;36.68;18.60;;;;;;;2.34;87.08;101718.42;1775252;80;21406;-86
2022/11/08 05:56:06;;;;;;;29.95;16.17;;;;;;;2.39;86.90;101726.16;1775308;80;21451;-88
2022/11/08 05:58:33;;;;;;;28.95;16.45;;;;;;;2.42;86.73;101717.05;1775445;80;20872;-89
2022/11/08 06:01:08;;;;;;;30.55;16.97;;;;;;;2.41;86.54;101721.83;1775522;80;20999;-87
2022/11/08 06:03:34;;;;;;;31.95;16.42;;;;;;;2.41;86.49;101723.97;1775742;80;21347;-89
2022/11/08 06:06:04;;;;;;;35.70;18.75;;;;;;;2.41;86.36;101725.27;1775471;80;20936;-87
2022/11/08 06:08:31;;;;;;;30.50;17.30;;;;;;;2.41;86.28;101730.44;1775546;80;20936;-87
2022/11/08 06:11:05;;;;;;;31.40;19.40;;;;;;;2.42;86.25;101730.88;1777785;80;21015;-86
2022/11/08 06:13:32;;;;;;;30.65;16.95;;;;;;;2.44;86.21;101733.44;1776864;80;21020;-86
2022/11/08 06:16:02;;;;;;;30.27;17.70;;;;;;;2.47;86.16;101740.75;1777848;80;21122;-87
2022/11/08 06:18:31;;;;;;;33.20;17.82;;;;;;;2.51;86.06;101742.01;1776722;80;20936;-88
2022/11/08 06:21:01;;;;;;;28.00;16.65;;;;;;;2.53;85.86;101739.83;1775591;80;20971;-87
2022/11/08 06:23:28;;;;;;;33.70;19.42;;;;;;;2.58;85.82;101747.14;1775667;80;21010;-88
2022/11/08 06:25:55;;;;;;;32.08;18.12;;;;;;;2.62;85.88;101754.02;1776329;80;20892;-88
2022/11/08 06:28:21;;;;;;;31.65;17.67;;;;;;;2.68;85.69;101752.64;1775785;80;21129;-89
2022/11/08 06:30:48;;;;;;;34.03;19.02;;;;;;;2.70;85.55;101757.37;1775347;80;20967;-89
2022/11/08 06:33:16;;;;;;;39.88;24.95;;;;;;;2.73;85.54;101750.00;1775607;80;21306;-88
2022/11/08 06:35:42;;;;;;;44.38;25.80;;;;;;;2.76;85.36;101746.52;1775421;80;20940;-89
2022/11/08 06:38:09;;;;;;;39.42;22.02;;;;;;;2.77;85.26;101737.45;1775620;80;21015;-88
2022/11/08 06:40:38;;;;;;;42.45;24.95;;;;;;;2.77;85.24;101745.22;1780529;80;21239;-89
2022/11/08 06:43:05;;;;;;;34.45;20.25;;;;;;;2.77;84.79;101740.48;1784488;80;20920;-89
2022/11/08 06:45:32;;;;;;;33.65;21.05;;;;;;;2.75;84.54;101734.45;1784499;80;20893;-88
2022/11/08 06:48:02;;;;;;;32.45;20.75;;;;;;;2.74;84.38;101741.38;1784433;80;21022;-85
2022/11/08 06:50:31;;;;;;;34.88;21.55;;;;;;;2.72;84.41;101743.13;1783751;80;20895;-88
2022/11/08 06:53:03;;;;;;;42.00;24.05;;;;;;;2.72;84.24;101746.16;1783763;80;21100;-87
2022/11/08 06:55:30;;;;;;;38.50;22.60;;;;;;;2.74;84.49;101737.94;1781292;80;20897;-88
2022/11/08 06:57:56;;;;;;;41.80;24.07;;;;;;;2.80;84.40;101734.85;1784397;80;20880;-87
2022/11/08 07:00:24;;;;;;;40.95;23.87;;;;;;;2.81;84.21;101734.41;1784090;80;20935;-88
2022/11/08 07:02:56;;;;;;;46.60;28.15;;;;;;;2.83;84.18;101733.95;1785227;80;20908;-88
2022/11/08 07:05:24;;;;;;;44.83;24.47;;;;;;;2.87;84.11;101731.77;1785525;80;21265;-88
2022/11/08 07:07:51;;;;;;;49.55;28.17;;;;;;;2.92;84.03;101731.72;1785122;80;20983;-88
2022/11/08 07:10:20;;;;;;;51.25;27.25;;;;;;;2.99;84.02;101734.66;1785006;80;20920;-87
2022/11/08 07:12:52;;;;;;;47.78;27.13;;;;;;;3.05;83.88;101741.08;1784700;80;20960;-88
2022/11/08 07:15:21;;;;;;;48.40;27.48;;;;;;;3.08;83.68;101735.84;1730956;80;20945;-87
2022/11/08 07:17:47;;;;;;;60.17;31.82;;;;;;;3.12;83.57;101740.12;1784755;80;21213;-88
2022/11/08 07:20:16;;;;;;;50.75;29.72;;;;;;;3.18;83.43;101740.06;1784924;80;20880;-91
2022/11/08 07:22:43;;;;;;;52.70;27.60;;;;;;;3.21;83.23;101741.31;1784639;80;20868;-87
2022/11/08 07:25:10;;;;;;;53.70;29.65;;;;;;;3.23;82.99;101745.20;1784554;80;20931;-88
2022/11/08 07:27:36;;;;;;;60.75;31.52;;;;;;;3.25;82.91;101753.38;1784948;80;20920;-90
2022/11/08 07:30:04;;;;;;;55.78;33.28;;;;;;;3.27;82.79;101753.36;1784753;80;21128;-89
2022/11/08 07:32:31;;;;;;;56.25;34.33;;;;;;;3.28;82.74;101757.21;1784691;80;20978;-89
2022/11/08 07:34:59;;;;;;;66.65;38.28;;;;;;;3.32;82.75;101762.79;1785051;80;20959;-89
2022/11/08 07:37:26;;;;;;;69.42;38.65;;;;;;;3.35;82.63;101755.85;1784771;80;20932;-89
2022/11/08 07:39:53;;;;;;;69.10;39.38;;;;;;;3.36;82.63;101761.03;1784413;80;20940;-89
2022/11/08 07:42:20;;;;;;;67.55;37.88;;;;;;;3.37;82.60;101751.51;1784558;80;22109;-89
2022/11/08 07:44:49;;;;;;;68.62;36.65;;;;;;;3.36;82.55;101754.55;1784817;80;20907;-88
2022/11/08 07:47:15;;;;;;;72.62;38.67;;;;;;;3.39;82.53;101749.76;1783960;80;20936;-88
2022/11/08 07:49:43;;;;;;;72.15;39.63;;;;;;;3.40;82.44;101754.05;1784008;80;20955;-87
2022/11/08 07:52:10;;;;;;;83.70;43.02;;;;;;;3.40;82.40;101749.75;1783948;80;20908;-89
2022/11/08 07:54:38;;;;;;;76.17;39.63;;;;;;;3.41;82.31;101752.75;1783970;80;21306;-87
2022/11/08 07:57:05;;;;;;;73.65;39.20;;;;;;;3.42;82.30;101753.16;1784942;80;20876;-87
2022/11/08 07:59:31;;;;;;;77.40;40.05;;;;;;;3.42;82.15;101748.41;1786791;80;20865;-88
2022/11/08 08:02:01;;;;;;;66.50;36.85;;;;;;;3.44;82.17;101753.14;1786419;78;21100;-86
2022/11/08 08:04:29;;;;;;;75.12;41.02;;;;;;;3.42;82.02;101749.27;1786449;78;20944;-90
2022/11/08 08:06:57;;;;;;;87.97;45.00;;;;;;;3.40;82.00;101751.05;1755811;80;21102;-88
2022/11/08 08:09:23;;;;;;;79.67;40.55;;;;;;;3.42;82.09;101758.78;1783824;80;20931;-89
2022/11/08 08:11:50;;;;;;;79.53;43.38;;;;;;;3.45;82.12;101757.47;1784348;80;20930;-87
2022/11/08 08:14:17;;;;;;;79.55;43.60;;;;;;;3.47;82.18;101758.31;1784319;80;20927;-88
2022/11/08 08:16:47;;;;;;;73.20;39.45;;;;;;;3.52;82.20;101759.11;1784364;80;20983;-89
2022/11/08 08:19:14;;;;;;;72.20;38.42;;;;;;;3.55;82.04;101761.65;1784217;80;21322;-90
2022/11/08 08:21:41;;;;;;;75.28;41.20;;;;;;;3.56;81.82;101767.69;1783951;80;20896;-87
2022/11/08 08:24:08;;;;;;;74.32;39.50;;;;;;;3.55;81.91;101762.95;1784662;80;20920;-88
2022/11/08 08:26:36;;;;;;;83.90;41.65;;;;;;;3.55;81.85;101763.39;1784720;80;20904;-88
2022/11/08 08:29:02;;;;;;;71.70;38.63;;;;;;;3.57;81.88;101765.09;1784892;80;20912;-88
2022/11/08 08:31:29;;;;;;;76.07;37.35;;;;;;;3.58;81.70;101764.64;1784818;80;21073;-91
2022/11/08 08:33:56;;;;;;;73.22;40.48;;;;;;;3.58;81.66;101764.64;1784288;80;21465;-87
2022/11/08 08:36:23;;;;;;;72.22;38.35;;;;;;;3.59;81.89;101759.44;1784533;80;20884;-88
2022/11/08 08:38:52;;;;;;;76.90;39.75;;;;;;;3.65;82.03;101757.22;1784704;80;20987;-89
2022/11/08 08:41:20;;;;;;;65.72;36.03;;;;;;;3.70;82.08;101758.02;1779349;80;20944;-91
2022/11/08 08:43:47;;;;;;;70.08;36.93;;;;;;;3.75;81.84;101748.42;1775866;80;21236;-90
2022/11/08 08:46:13;;;;;;;70.80;39.13;;;;;;;3.74;81.56;101744.98;1775487;80;20920;-89
2022/11/08 08:48:40;;;;;;;74.40;38.85;;;;;;;3.74;81.44;101744.12;1775602;80;20908;-88
2022/11/08 08:51:06;;;;;;;69.77;39.58;;;;;;;3.73;81.63;101737.20;1775543;80;21393;-88
2022/11/08 08:53:33;;;;;;;73.37;38.60;;;;;;;3.76;81.63;101732.00;1776121;80;20877;-88
2022/11/08 08:56:01;;;;;;;70.20;39.50;;;;;;;3.76;81.55;101732.41;1776147;80;21202;-88
2022/11/08 08:58:27;;;;;;;72.12;38.23;;;;;;;3.78;81.77;101728.94;1776083;80;21112;-91
2022/11/08 09:00:57;;;;;;;70.15;38.23;;;;;;;3.82;81.78;101724.55;1775425;80;20893;-89
2022/11/08 09:03:23;;;;;;;83.37;46.02;;;;;;;3.84;81.71;101728.83;1753903;80;20959;-88
2022/11/08 09:05:50;;;;;;;78.15;42.62;;;;;;;3.88;81.72;101728.36;1775446;80;20995;-88
2022/11/08 09:08:17;;;;;;;74.17;41.83;;;;;;;3.89;81.69;101730.94;1775523;80;21140;-88
2022/11/08 09:10:43;;;;;;;61.55;35.78;;;;;;;3.92;81.72;101725.70;1775439;80;20908;-88
2022/11/08 09:13:13;;;;;;;60.00;35.17;;;;;;;3.94;81.50;101726.98;1775625;80;20989;-89
2022/11/08 09:15:43;;;;;;;57.20;34.25;;;;;;;3.89;81.12;101727.47;1724885;80;20948;-88
2022/11/08 09:18:11;;;;;;;59.77;34.40;;;;;;;3.86;80.94;101719.73;1777014;80;20940;-88
2022/11/08 09:20:38;;;;;;;62.60;37.03;;;;;;;3.81;80.83;101716.36;1777956;80;22171;-86
2022/11/08 09:23:04;;;;;;;63.30;35.98;;;;;;;3.78;80.90;101710.78;1778226;80;20896;-86
2022/11/08 09:25:31;;;;;;;62.17;37.48;;;;;;;3.79;80.99;101711.63;1778209;80;20968;-87
2022/11/08 09:27:57;;;;;;;51.95;32.93;;;;;;;3.80;81.11;101710.73;1755974;80;20908;-87
2022/11/08 09:30:25;;;;;;;53.58;33.25;;;;;;;3.83;81.21;101704.23;1777592;80;20920;-88
2022/11/08 09:32:53;;;;;;;61.30;36.93;;;;;;;3.83;81.16;101704.23;1777305;80;21446;-87
2022/11/08 09:35:20;;;;;;;58.42;34.58;;;;;;;3.85;81.27;101704.62;1776349;80;21025;-87
2022/11/08 09:37:47;;;;;;;76.75;45.40;;;;;;;3.90;81.47;101705.40;1775774;80;20896;-88
2022/11/08 09:40:20;;;;;;;88.72;50.63;;;;;;;3.98;81.40;101705.30;1775927;80;21399;-87
2022/11/08 09:43:20;;;;;;;70.35;38.92;;;;;;;4.02;81.47;101703.50;1775540;80;21311;-89
2022/11/08 09:45:51;;;;;;;75.40;37.75;;;;;;;4.08;81.54;101699.52;1775885;80;21161;-89
2022/11/08 09:48:37;;;;;;;76.22;40.30;;;;;;;4.12;81.42;101698.14;1775575;80;20932;-89
2022/11/08 09:51:10;;;;;;;65.65;35.73;;;;;;;4.17;81.35;101697.22;1771754;80;21377;-88
2022/11/08 09:55:34;;;;;;;63.52;36.50;;;;;;;4.27;81.04;101687.96;1855312;77;23146;-89
2022/11/08 09:58:06;;;;;;;56.30;32.30;;;;;;;4.25;80.79;101692.32;1827046;78;20899;-89
2022/11/08 10:00:34;;;;;;;51.88;32.17;;;;;;;4.25;80.43;101681.09;1827181;78;21157;-88
2022/11/08 10:03:01;;;;;;;45.50;29.18;;;;;;;4.22;80.13;101676.77;1827150;78;20856;-88
2022/11/08 10:05:37;;;;;;;49.42;30.68;;;;;;;4.21;80.10;101677.67;1827381;78;20935;-88
2022/11/08 10:08:28;;;;;;;48.30;31.00;;;;;;;4.17;79.64;101677.30;1827164;78;21389;-87
2022/11/08 10:11:13;;;;;;;53.28;29.37;;;;;;;4.07;79.49;101683.09;1827253;78;20931;-89
2022/11/08 10:14:00;;;;;;;42.93;28.95;;;;;;;3.96;79.58;101681.11;1827261;78;21953;-89
2022/11/08 10:16:58;;;;;;;42.60;28.17;;;;;;;3.90;79.65;101677.30;1826860;78;20911;-92
2022/11/08 10:20:02;;;;;;;43.65;27.22;;;;;;;3.81;79.72;101677.00;1826974;78;21420;-90
2022/11/08 10:23:14;;;;;;;42.95;28.05;;;;;;;3.74;79.96;101680.13;1827407;78;21020;-90
2022/11/08 10:25:54;;;;;;;52.88;31.70;;;;;;;3.76;80.07;101677.52;1717626;83;20916;-88
2022/11/08 10:28:25;;;;;;;52.98;32.23;;;;;;;3.79;80.05;101680.05;1716957;83;21831;-91
2022/11/08 10:30:53;;;;;;;51.00;31.40;;;;;;;3.84;79.90;101677.39;1716782;83;20960;-90
2022/11/08 10:33:39;;;;;;;45.75;31.07;;;;;;;3.86;79.59;101665.25;1716918;83;20947;-90
2022/11/08 10:36:30;;;;;;;44.13;27.73;;;;;;;3.83;79.28;101667.45;1706632;83;21038;-90
2022/11/08 10:39:10;;;;;;;45.17;29.32;;;;;;;3.72;79.27;101661.58;1716530;83;20963;-90
2022/11/08 10:42:06;;;;;;;45.28;28.52;;;;;;;3.68;79.40;101667.68;1716876;83;21166;-90
2022/11/08 10:44:33;;;;;;;54.10;34.65;;;;;;;3.66;79.65;101670.28;1715746;83;20990;-87
2022/11/08 10:47:03;;;;;;;56.83;35.92;;;;;;;3.69;79.58;101666.78;1716885;83;20999;-88
2022/11/08 10:49:38;;;;;;;64.20;39.83;;;;;;;3.67;79.31;101674.61;1716621;83;20912;-90
2022/11/08 10:52:19;;;;;;;59.30;36.13;;;;;;;3.70;79.60;101671.96;1716470;83;21038;-88
2022/11/08 10:54:50;;;;;;;55.35;32.95;;;;;;;3.80;79.63;101667.93;1716706;83;21504;-89
2022/11/08 10:57:29;;;;;;;50.35;33.10;;;;;;;3.89;79.69;101667.37;1716640;83;21026;-89
2022/11/08 11:00:22;;;;;;;52.38;31.48;;;;;;;4.00;79.36;101671.06;1717102;83;20971;-90
2022/11/08 11:03:05;;;;;;;53.85;32.17;;;;;;;4.03;78.88;101669.74;1815782;78;20908;-88
2022/11/08 11:05:41;;;;;;;55.65;34.08;;;;;;;4.00;78.44;101666.33;1810993;78;21449;-90
2022/11/08 11:08:13;;;;;;;51.92;34.05;;;;;;;3.99;78.40;101665.92;1815032;79;21856;-89
2022/11/08 11:10:46;;;;;;;46.50;31.02;;;;;;;3.95;78.36;101672.89;1815880;79;20876;-89
2022/11/08 11:13:20;;;;;;;42.60;27.70;;;;;;;3.93;78.39;101657.36;1817490;79;20845;-89
2022/11/08 11:16:02;;;;;;;44.55;29.40;;;;;;;3.89;78.39;101671.27;1817466;78;20955;-87
2022/11/08 11:18:47;;;;;;;46.70;29.70;;;;;;;3.86;78.56;101667.40;1817229;79;20876;-87
2022/11/08 11:21:18;;;;;;;43.52;27.35;;;;;;;3.79;78.64;101658.45;1815473;79;21304;-88
2022/11/08 11:23:49;;;;;;;48.02;29.77;;;;;;;3.73;78.88;101648.59;1814496;79;20994;-89
2022/11/08 11:26:37;;;;;;;48.78;29.50;;;;;;;3.72;79.08;101652.49;1792182;79;20916;-89
2022/11/08 11:29:15;;;;;;;45.00;28.92;;;;;;;3.76;79.29;101653.28;1814629;79;20905;-90
2022/11/08 11:31:45;;;;;;;48.83;31.97;;;;;;;3.82;79.18;101649.31;1815577;78;21346;-89
2022/11/08 11:34:42;;;;;;;55.92;34.13;;;;;;;3.84;79.09;101652.29;1793139;79;21229;-89
2022/11/08 11:37:14;;;;;;;53.17;31.33;;;;;;;3.83;79.04;101648.45;1814977;79;20991;-88
2022/11/08 11:40:03;;;;;;;50.67;30.45;;;;;;;3.81;79.04;101651.05;1815815;79;20884;-89
2022/11/08 11:42:54;;;;;;;50.03;30.70;;;;;;;3.83;79.04;101648.00;1815512;78;20900;-89
2022/11/08 11:45:46;;;;;;;49.73;32.20;;;;;;;3.79;78.82;101648.92;1815736;79;20955;-89
2022/11/08 11:48:27;;;;;;;48.40;30.80;;;;;;;3.71;79.00;101645.57;1815391;79;21152;-90
2022/11/08 11:50:53;;;;;;;47.40;31.10;;;;;;;3.69;79.11;101648.62;1792447;79;20880;-89